createdAt,value
2019-02-14T00:00:15.263Z,51.90
2019-02-14T00:02:43.306Z,51.80
2019-02-14T00:05:16.421Z,51.50
2019-02-14T00:07:41.687Z,51.20
2019-02-14T00:10:10.299Z,51.70
2019-02-14T00:12:38.381Z,51.30
2019-02-14T00:15:07.375Z,51.20
2019-02-14T00:17:35.760Z,51.90
2019-02-14T00:20:04.785Z,51.80
2019-02-14T00:22:32.807Z,51.90
2019-02-14T00:25:01.187Z,52.00
2019-02-14T00:27:29.197Z,52.10
2019-02-14T00:29:57.611Z,51.80
2019-02-14T00:32:25.715Z,51.80
2019-02-14T00:35:13.260Z,51.70
2019-02-14T00:37:41.799Z,51.40
2019-02-14T00:40:10.182Z,51.60
2019-02-14T00:42:38.506Z,51.60
2019-02-14T00:45:06.807Z,51.40
2019-02-14T00:47:34.834Z,51.70
2019-02-14T00:50:02.971Z,52.00
2019-02-14T00:52:31.016Z,52.00
2019-02-14T00:54:59.087Z,52.60
2019-02-14T00:57:27.159Z,51.90
2019-02-14T00:59:55.150Z,52.20
2019-02-14T01:02:23.505Z,51.60
2019-02-14T01:04:51.508Z,51.70
2019-02-14T01:07:19.858Z,51.90
2019-02-14T01:09:47.885Z,52.60
2019-02-14T01:12:16.440Z,52.20
2019-02-14T01:14:44.467Z,52.00
2019-02-14T01:17:12.589Z,51.80
2019-02-14T01:19:40.579Z,50.80
2019-02-14T01:22:08.599Z,52.20
2019-02-14T01:24:36.806Z,52.70
2019-02-14T01:27:04.890Z,52.80
2019-02-14T01:29:32.894Z,53.10
2019-02-14T01:32:01.902Z,53.10
2019-02-14T01:34:30.139Z,53.70
2019-02-14T01:36:58.414Z,53.10
2019-02-14T01:39:26.412Z,53.80
2019-02-14T01:41:54.431Z,53.60
2019-02-14T01:44:22.432Z,54.20
2019-02-14T01:46:50.498Z,54.50
2019-02-14T01:49:18.540Z,53.80
2019-02-14T01:51:46.527Z,53.40
2019-02-14T01:54:14.782Z,54.20
2019-02-14T01:56:42.779Z,55.40
2019-02-14T01:59:10.815Z,54.90
2019-02-14T02:01:39.151Z,54.70
2019-02-14T02:04:07.603Z,54.30
2019-02-14T02:06:35.692Z,54.50
2019-02-14T02:09:06.446Z,54.90
2019-02-14T02:11:34.666Z,55.00
2019-02-14T02:14:03.131Z,55.40
2019-02-14T02:16:31.275Z,55.30
2019-02-14T02:18:59.335Z,54.80
2019-02-14T02:21:40.139Z,54.70
2019-02-14T02:24:08.680Z,54.30
2019-02-14T02:26:36.941Z,54.80
2019-02-14T02:29:05.241Z,55.00
2019-02-14T02:31:33.287Z,54.50
2019-02-14T02:34:01.346Z,54.90
2019-02-14T02:36:29.387Z,54.90
2019-02-14T02:38:57.796Z,54.60
2019-02-14T02:41:26.220Z,54.50
2019-02-14T02:43:54.560Z,54.30
2019-02-14T02:46:22.893Z,54.70
2019-02-14T02:48:50.955Z,55.20
2019-02-14T02:51:18.934Z,55.30
2019-02-14T02:53:47.000Z,55.00
2019-02-14T02:56:15.344Z,54.70
2019-02-14T02:58:43.703Z,54.40
2019-02-14T03:01:11.996Z,54.10
2019-02-14T03:03:40.421Z,53.90
2019-02-14T03:06:10.801Z,55.00
2019-02-14T03:08:38.841Z,54.80
2019-02-14T03:11:06.822Z,55.00
2019-02-14T03:13:34.846Z,55.70
2019-02-14T03:16:02.898Z,55.50
2019-02-14T03:18:31.252Z,55.00
2019-02-14T03:20:59.538Z,54.80
2019-02-14T03:23:27.880Z,55.30
2019-02-14T03:25:55.858Z,55.70
2019-02-14T03:28:24.128Z,56.00
2019-02-14T03:30:52.044Z,55.90
2019-02-14T03:33:20.108Z,55.80
2019-02-14T03:35:48.349Z,55.20
2019-02-14T03:38:19.606Z,55.00
2019-02-14T03:40:47.811Z,54.80
2019-02-14T03:43:16.167Z,55.10
2019-02-14T03:45:44.227Z,55.70
2019-02-14T03:48:12.217Z,56.20
2019-02-14T03:50:40.823Z,56.40
2019-02-14T03:53:09.271Z,56.40
2019-02-14T03:55:37.615Z,56.20
2019-02-14T03:58:05.635Z,56.10
2019-02-14T04:00:33.942Z,55.90
2019-02-14T04:03:02.393Z,56.40
2019-02-14T04:05:31.032Z,56.60
2019-02-14T04:07:59.054Z,56.50
2019-02-14T04:10:27.120Z,56.90
2019-02-14T04:12:55.191Z,57.20
2019-02-14T04:15:23.430Z,57.20
2019-02-14T04:17:51.466Z,57.50
2019-02-14T04:20:19.584Z,56.90
2019-02-14T04:22:47.774Z,56.60
2019-02-14T04:25:15.744Z,56.90
2019-02-14T04:27:43.778Z,57.10
2019-02-14T04:30:12.555Z,57.10
2019-02-14T04:32:40.540Z,57.20
2019-02-14T04:35:08.611Z,57.00
2019-02-14T04:37:36.603Z,56.50
2019-02-14T04:40:05.682Z,56.40
2019-02-14T04:42:33.695Z,56.30
2019-02-14T04:45:01.778Z,56.20
2019-02-14T04:47:29.782Z,56.20
2019-02-14T04:49:57.845Z,56.10
2019-02-14T04:52:25.863Z,56.30
2019-02-14T04:54:53.911Z,56.20
2019-02-14T04:57:22.424Z,57.30
2019-02-14T04:59:50.355Z,57.20
2019-02-14T05:02:18.474Z,57.00
2019-02-14T05:04:46.502Z,56.30
2019-02-14T05:07:14.527Z,57.30
2019-02-14T05:09:42.815Z,57.70
2019-02-14T05:12:11.014Z,57.30
2019-02-14T05:14:39.086Z,57.20
2019-02-14T05:17:07.098Z,57.50
2019-02-14T05:19:35.052Z,57.20
2019-02-14T05:22:03.159Z,57.00
2019-02-14T05:24:31.310Z,57.60
2019-02-14T05:27:00.927Z,58.10
2019-02-14T05:29:29.034Z,57.70
2019-02-14T05:31:57.083Z,58.00
2019-02-14T05:34:25.148Z,58.50
2019-02-14T05:36:55.211Z,58.60
2019-02-14T05:39:22.914Z,58.90
2019-02-14T05:41:51.134Z,58.70
2019-02-14T05:44:19.049Z,58.70
2019-02-14T05:46:47.121Z,59.00
2019-02-14T05:49:15.234Z,59.10
2019-02-14T05:51:43.249Z,59.00
2019-02-14T05:54:11.319Z,59.30
2019-02-14T05:56:39.354Z,58.60
2019-02-14T05:59:07.316Z,58.40
2019-02-14T06:01:35.663Z,58.70
2019-02-14T06:04:04.098Z,59.30
2019-02-14T06:06:32.075Z,59.80
2019-02-14T06:09:00.034Z,59.30
2019-02-14T06:11:28.134Z,59.10
2019-02-14T06:13:56.216Z,59.30
2019-02-14T06:16:24.750Z,59.40
2019-02-14T06:18:53.204Z,59.00
2019-02-14T06:21:21.322Z,59.60
2019-02-14T06:23:49.435Z,59.80
2019-02-14T06:26:17.483Z,60.40
2019-02-14T06:28:46.508Z,60.40
2019-02-14T06:31:14.458Z,60.30
2019-02-14T06:33:44.285Z,59.80
2019-02-14T06:36:12.447Z,60.30
2019-02-14T06:38:40.764Z,60.70
2019-02-14T06:41:08.800Z,60.60
2019-02-14T06:43:36.793Z,60.60
2019-02-14T06:46:04.718Z,60.60
2019-02-14T06:48:32.865Z,60.60
2019-02-14T06:51:00.979Z,61.00
2019-02-14T06:53:28.936Z,61.20
2019-02-14T06:55:57.006Z,61.10
2019-02-14T06:58:25.087Z,61.30
2019-02-14T07:00:54.042Z,61.50
2019-02-14T07:03:22.426Z,61.50
2019-02-14T07:05:50.501Z,61.90
2019-02-14T07:08:18.555Z,61.10
2019-02-14T07:10:46.573Z,61.70
2019-02-14T07:13:14.950Z,61.80
2019-02-14T07:15:43.027Z,62.70
2019-02-14T07:18:11.128Z,62.70
2019-02-14T07:20:39.167Z,62.50
2019-02-14T07:23:07.175Z,62.60
2019-02-14T07:25:35.231Z,62.30
2019-02-14T07:28:03.179Z,61.70
2019-02-14T07:30:31.170Z,62.50
2019-02-14T07:32:59.367Z,62.90
2019-02-14T07:35:27.627Z,63.10
2019-02-14T07:37:55.690Z,63.10
2019-02-14T07:40:23.940Z,63.60
2019-02-14T07:42:52.380Z,64.10
2019-02-14T07:45:20.474Z,64.20
2019-02-14T07:47:48.436Z,64.00
2019-02-14T07:50:16.881Z,64.00
2019-02-14T07:52:45.008Z,64.00
2019-02-14T07:55:13.220Z,63.90
2019-02-14T07:57:41.410Z,64.50
2019-02-14T08:00:11.475Z,64.90
2019-02-14T08:02:39.587Z,65.40
2019-02-14T08:05:07.751Z,66.00
2019-02-14T08:07:36.318Z,66.00
2019-02-14T08:10:05.123Z,65.70
2019-02-14T08:12:33.079Z,65.60
2019-02-14T08:15:01.038Z,65.20
2019-02-14T08:17:29.040Z,64.80
2019-02-14T08:19:57.043Z,64.50
2019-02-14T08:22:25.564Z,65.00
2019-02-14T08:24:53.478Z,64.70
2019-02-14T08:27:21.771Z,64.30
2019-02-14T08:29:51.678Z,64.30
2019-02-14T08:32:19.523Z,63.10
2019-02-14T08:34:47.526Z,60.60
2019-02-14T08:37:15.987Z,60.50
2019-02-14T08:39:44.075Z,61.60
2019-02-14T08:42:12.111Z,60.60
2019-02-14T08:44:40.115Z,59.90
2019-02-14T08:47:08.243Z,59.40
2019-02-14T08:49:36.227Z,59.30
2019-02-14T08:52:04.331Z,59.30
2019-02-14T08:54:32.297Z,58.10
2019-02-14T08:57:02.139Z,57.00
2019-02-14T08:59:30.155Z,59.50
2019-02-14T09:01:58.175Z,60.60
2019-02-14T09:04:26.196Z,61.00
2019-02-14T09:06:54.259Z,61.60
2019-02-14T09:09:22.277Z,62.10
2019-02-14T09:11:50.278Z,62.70
2019-02-14T09:14:21.101Z,62.80
2019-02-14T09:16:49.175Z,62.20
2019-02-14T09:19:17.116Z,61.20
2019-02-14T09:21:45.167Z,61.10
2019-02-14T09:24:13.630Z,60.50
2019-02-14T09:26:41.623Z,61.90
2019-02-14T09:29:09.643Z,63.00
2019-02-14T09:31:37.911Z,62.40
2019-02-14T09:34:05.989Z,62.80
2019-02-14T09:36:34.452Z,61.40
2019-02-14T09:39:03.545Z,60.50
2019-02-14T09:41:31.677Z,60.60
2019-02-14T09:43:59.933Z,60.50
2019-02-14T09:46:28.122Z,61.40
2019-02-14T09:48:56.152Z,60.80
2019-02-14T09:51:24.202Z,59.80
2019-02-14T09:53:52.214Z,59.90
2019-02-14T09:56:20.216Z,59.50
2019-02-14T09:58:48.244Z,59.10
2019-02-14T10:01:16.334Z,59.40
2019-02-14T10:03:44.487Z,59.50
2019-02-14T10:06:12.720Z,58.50
2019-02-14T10:08:40.930Z,57.50
2019-02-14T10:11:08.971Z,58.30
2019-02-14T10:13:37.018Z,58.10
2019-02-14T10:16:04.952Z,58.10
2019-02-14T10:18:32.915Z,56.40
2019-02-14T10:21:00.975Z,55.70
2019-02-14T10:23:29.027Z,55.40
2019-02-14T10:25:57.302Z,55.30
2019-02-14T10:28:25.322Z,55.50
2019-02-14T10:30:53.338Z,54.80
2019-02-14T10:33:21.350Z,55.30
2019-02-14T10:35:49.367Z,52.50
2019-02-14T10:38:22.368Z,52.20
2019-02-14T10:40:47.561Z,52.80
2019-02-14T10:43:15.779Z,53.60
2019-02-14T10:45:43.815Z,52.30
2019-02-14T10:48:11.843Z,50.90
2019-02-14T10:50:39.856Z,51.10
2019-02-14T10:53:07.809Z,49.80
2019-02-14T10:55:35.830Z,51.00
2019-02-14T10:58:03.936Z,48.70
2019-02-14T11:00:32.179Z,48.90
2019-02-14T11:03:00.292Z,50.00
2019-02-14T11:05:28.256Z,50.20
2019-02-14T11:07:56.380Z,50.70
2019-02-14T11:10:24.566Z,49.70
2019-02-14T11:12:52.503Z,47.30
2019-02-14T11:15:26.298Z,47.20
2019-02-14T11:17:54.431Z,46.80
2019-02-14T11:20:22.335Z,46.80
2019-02-14T11:22:50.431Z,47.20
2019-02-14T11:25:21.470Z,47.20
2019-02-14T11:27:49.651Z,46.80
2019-02-14T11:30:17.713Z,46.80
2019-02-14T11:32:45.671Z,44.90
2019-02-14T11:35:13.696Z,44.20
2019-02-14T11:37:42.230Z,42.90
2019-02-14T11:40:10.895Z,41.80
2019-02-14T11:42:38.981Z,41.90
2019-02-14T11:45:09.363Z,41.40
2019-02-14T11:47:37.922Z,40.50
2019-02-14T11:50:06.931Z,42.30
2019-02-14T11:52:35.014Z,41.60
2019-02-14T11:55:03.116Z,40.30
2019-02-14T11:57:31.096Z,38.10
2019-02-14T11:59:59.071Z,36.80
2019-02-14T12:02:27.065Z,37.40
2019-02-14T12:04:55.191Z,36.80
2019-02-14T12:07:23.110Z,35.10
2019-02-14T12:09:51.104Z,33.50
2019-02-14T12:12:20.756Z,35.00
2019-02-14T12:15:13.626Z,34.60
2019-02-14T12:17:41.407Z,34.20
2019-02-14T12:20:12.376Z,32.60
2019-02-14T12:22:46.301Z,31.30
2019-02-14T12:25:10.540Z,33.40
2019-02-14T12:27:38.619Z,32.10
2019-02-14T12:30:09.014Z,33.40
2019-02-14T12:32:37.127Z,30.70
2019-02-14T12:35:05.254Z,32.60
2019-02-14T12:37:45.769Z,34.40
2019-02-14T12:40:14.323Z,34.70
2019-02-14T12:42:42.349Z,33.30
2019-02-14T12:45:20.207Z,33.00
2019-02-14T12:47:41.687Z,33.20
2019-02-14T12:50:09.839Z,33.60
2019-02-14T12:52:37.832Z,32.60
2019-02-14T12:55:06.144Z,33.70
2019-02-14T12:57:34.211Z,33.00
2019-02-14T13:00:02.196Z,32.40
2019-02-14T13:02:30.206Z,31.30
2019-02-14T13:04:58.285Z,31.90
2019-02-14T13:07:26.338Z,32.10
2019-02-14T13:09:54.560Z,32.30
2019-02-14T13:12:22.853Z,32.50
2019-02-14T13:15:16.865Z,34.10
2019-02-14T13:17:44.519Z,32.10
2019-02-14T13:20:12.847Z,31.90
2019-02-14T13:22:40.814Z,31.40
2019-02-14T13:25:09.570Z,32.10
2019-02-14T13:27:37.703Z,33.00
2019-02-14T13:30:07.268Z,33.30
2019-02-14T13:32:35.250Z,32.80
2019-02-14T13:35:03.456Z,34.10
2019-02-14T13:37:31.488Z,31.90
2019-02-14T13:39:59.506Z,31.70
2019-02-14T13:42:27.583Z,32.10
2019-02-14T13:44:55.755Z,32.90
2019-02-14T13:47:23.836Z,33.30
2019-02-14T13:49:51.824Z,34.10
2019-02-14T13:52:19.986Z,34.30
2019-02-14T13:54:48.032Z,32.80
2019-02-14T13:57:16.187Z,33.30
2019-02-14T13:59:44.275Z,34.40
2019-02-14T14:02:12.379Z,33.60
2019-02-14T14:04:40.446Z,32.90
2019-02-14T14:07:08.447Z,33.00
2019-02-14T14:09:38.705Z,32.40
2019-02-14T14:12:06.527Z,31.30
2019-02-14T14:15:00.730Z,32.20
2019-02-14T14:17:28.575Z,33.00
2019-02-14T14:19:56.554Z,32.90
2019-02-14T14:22:24.516Z,30.70
2019-02-14T14:24:52.539Z,30.90
2019-02-14T14:27:20.671Z,31.30
2019-02-14T14:29:48.702Z,31.80
2019-02-14T14:32:16.780Z,32.40
2019-02-14T14:34:45.268Z,30.80
2019-02-14T14:37:13.361Z,31.30
2019-02-14T14:39:47.657Z,31.20
2019-02-14T14:42:30.615Z,31.20
2019-02-14T14:44:58.799Z,32.10
2019-02-14T14:47:26.883Z,32.70
2019-02-14T14:49:54.871Z,33.10
2019-02-14T14:52:22.936Z,32.20
2019-02-14T14:54:50.928Z,30.60
2019-02-14T14:57:18.882Z,31.40
2019-02-14T14:59:47.327Z,31.10
2019-02-14T15:02:15.763Z,32.00
2019-02-14T15:04:43.846Z,33.10
2019-02-14T15:07:11.870Z,32.70
2019-02-14T15:09:39.889Z,32.70
2019-02-14T15:12:08.312Z,33.50
2019-02-14T15:15:14.619Z,34.30
2019-02-14T15:17:41.607Z,32.30
2019-02-14T15:20:09.644Z,33.30
2019-02-14T15:22:37.648Z,33.90
2019-02-14T15:25:05.831Z,34.20
2019-02-14T15:27:34.044Z,33.90
2019-02-14T15:30:02.069Z,34.60
2019-02-14T15:32:30.200Z,34.50
2019-02-14T15:34:58.249Z,34.80
2019-02-14T15:37:34.637Z,33.90
2019-02-14T15:40:09.403Z,34.00
2019-02-14T15:42:32.673Z,33.60
2019-02-14T15:45:00.679Z,33.30
2019-02-14T15:47:30.813Z,33.40
2019-02-14T15:49:58.505Z,34.60
2019-02-14T15:52:27.448Z,34.50
2019-02-14T15:54:58.134Z,34.40
2019-02-14T15:57:26.243Z,34.20
2019-02-14T15:59:54.260Z,34.30
2019-02-14T16:02:22.293Z,35.70
2019-02-14T16:04:50.758Z,38.60
2019-02-14T16:07:20.182Z,40.40
2019-02-14T16:09:48.831Z,41.60
2019-02-14T16:12:17.454Z,42.40
2019-02-14T16:15:16.907Z,42.70
2019-02-14T16:17:44.402Z,43.20
2019-02-14T16:20:12.959Z,43.40
2019-02-14T16:22:42.387Z,43.90
2019-02-14T16:25:10.950Z,44.10
2019-02-14T16:27:38.935Z,44.10
2019-02-14T16:30:09.270Z,44.80
2019-02-14T16:32:37.151Z,44.90
2019-02-14T16:35:05.484Z,45.10
2019-02-14T16:37:33.445Z,45.30
2019-02-14T16:40:01.459Z,45.60
2019-02-14T16:42:29.835Z,45.90
2019-02-14T16:44:58.846Z,46.00
2019-02-14T16:47:26.925Z,45.90
2019-02-14T16:49:54.998Z,46.20
2019-02-14T16:52:23.090Z,46.70
2019-02-14T16:54:51.153Z,46.90
2019-02-14T16:57:19.212Z,47.30
2019-02-14T16:59:47.380Z,47.40
2019-02-14T17:02:15.543Z,47.40
2019-02-14T17:04:43.765Z,47.40
2019-02-14T17:07:11.919Z,47.70
2019-02-14T17:09:39.919Z,47.90
2019-02-14T17:12:07.952Z,47.90
2019-02-14T17:15:00.460Z,47.40
2019-02-14T17:17:28.361Z,47.20
2019-02-14T17:19:56.473Z,47.40
2019-02-14T17:22:24.654Z,47.80
2019-02-14T17:24:52.671Z,47.80
2019-02-14T17:27:20.747Z,47.30
2019-02-14T17:29:48.813Z,47.30
2019-02-14T17:32:16.898Z,47.70
2019-02-14T17:34:45.360Z,47.50
2019-02-14T17:37:13.515Z,47.50
2019-02-14T17:39:41.920Z,47.80
2019-02-14T17:42:10.113Z,48.00
2019-02-14T17:44:38.797Z,47.90
2019-02-14T17:47:07.421Z,47.80
2019-02-14T17:49:35.989Z,47.70
2019-02-14T17:52:05.577Z,47.70
2019-02-14T17:54:34.421Z,47.70
2019-02-14T17:57:04.659Z,47.40
2019-02-14T17:59:33.442Z,47.40
2019-02-14T18:02:03.956Z,47.20
2019-02-14T18:04:32.857Z,47.40
2019-02-14T18:07:03.218Z,47.40
2019-02-14T18:09:31.915Z,47.50
2019-02-14T18:12:02.253Z,47.70
2019-02-14T18:14:53.171Z,47.60
2019-02-14T18:17:22.094Z,47.70
2019-02-14T18:19:50.878Z,47.90
2019-02-14T18:22:19.715Z,47.90
2019-02-14T18:24:48.515Z,48.10
2019-02-14T18:27:17.366Z,48.00
2019-02-14T18:29:46.201Z,48.00
2019-02-14T18:32:15.025Z,47.90
2019-02-14T18:34:43.822Z,47.90
2019-02-14T18:37:12.682Z,47.90
2019-02-14T18:39:41.425Z,47.90
2019-02-14T18:42:10.332Z,47.80
2019-02-14T18:44:39.106Z,47.90
2019-02-14T18:47:07.881Z,47.90
2019-02-14T18:49:36.289Z,47.80
2019-02-14T18:52:04.950Z,48.00
2019-02-14T18:54:33.650Z,47.80
2019-02-14T18:57:04.102Z,48.10
2019-02-14T18:59:32.910Z,48.20
2019-02-14T19:02:03.383Z,48.10
2019-02-14T19:04:32.232Z,47.90
2019-02-14T19:07:02.613Z,48.20
2019-02-14T19:09:31.507Z,48.20
2019-02-14T19:12:00.365Z,48.50
2019-02-14T19:14:41.176Z,48.50
2019-02-14T19:17:10.048Z,48.60
2019-02-14T19:19:38.911Z,48.50
2019-02-14T19:22:07.737Z,48.50
2019-02-14T19:24:36.538Z,48.80
2019-02-14T19:27:05.647Z,48.60
2019-02-14T19:29:36.296Z,48.10
2019-02-14T19:32:05.496Z,48.70
2019-02-14T19:34:34.379Z,49.20
2019-02-14T19:37:04.988Z,49.20
2019-02-14T19:39:33.846Z,49.30
2019-02-14T19:42:06.879Z,49.30
2019-02-14T19:44:35.688Z,49.30
2019-02-14T19:47:05.355Z,49.20
2019-02-14T19:49:34.199Z,49.30
2019-02-14T19:52:04.591Z,49.40
2019-02-14T19:54:33.347Z,49.50
2019-02-14T19:57:08.775Z,49.80
2019-02-14T19:59:57.996Z,50.00
2019-02-14T20:02:53.071Z,50.00
2019-02-14T20:09:03.347Z,50.30
2019-02-14T20:12:08.179Z,50.30
2019-02-14T20:15:43.914Z,50.00
2019-02-14T20:18:51.401Z,50.40
2019-02-14T20:21:18.919Z,50.80
2019-02-14T20:24:39.550Z,50.60
2019-02-14T20:28:25.023Z,50.80
2019-02-14T20:30:51.232Z,51.10
2019-02-14T20:33:20.132Z,50.80
2019-02-14T20:35:49.056Z,51.00
2019-02-14T20:38:17.718Z,50.70
2019-02-14T20:40:46.269Z,50.90
2019-02-14T20:43:15.011Z,51.10
2019-02-14T20:45:43.470Z,51.60
2019-02-14T20:48:12.027Z,51.40
2019-02-14T20:50:40.435Z,51.60
2019-02-14T20:53:08.491Z,51.60
2019-02-14T20:55:37.062Z,51.70
2019-02-14T20:58:05.512Z,51.60
2019-02-14T21:00:36.050Z,51.30
2019-02-14T21:03:04.410Z,51.20
2019-02-14T21:05:32.749Z,51.50
2019-02-14T21:08:00.884Z,51.60
2019-02-14T21:10:29.195Z,51.80
2019-02-14T21:12:57.683Z,52.10
2019-02-14T21:16:03.502Z,52.00
2019-02-14T21:18:30.234Z,52.00
2019-02-14T21:20:59.172Z,51.50
2019-02-14T21:23:27.243Z,51.50
2019-02-14T21:26:27.310Z,52.50
2019-02-14T21:28:54.791Z,52.40
2019-02-14T21:31:22.765Z,52.90
2019-02-14T21:33:53.698Z,53.20
2019-02-14T21:36:21.894Z,53.20
2019-02-14T21:38:49.862Z,53.10
2019-02-14T21:41:18.218Z,52.90
2019-02-14T21:43:46.198Z,53.00
2019-02-14T21:46:14.149Z,53.20
2019-02-14T21:48:42.331Z,53.10
2019-02-14T21:51:10.383Z,53.10
2019-02-14T21:53:38.426Z,53.00
2019-02-14T21:56:06.462Z,52.90
2019-02-14T21:58:34.375Z,53.20
2019-02-14T22:01:02.446Z,53.20
2019-02-14T22:03:30.526Z,53.30
2019-02-14T22:05:58.523Z,53.10
2019-02-14T22:08:26.931Z,53.00
2019-02-14T22:10:54.950Z,52.90
2019-02-14T22:13:24.738Z,53.10
2019-02-14T22:16:37.054Z,53.00
2019-02-14T22:19:03.143Z,52.80
2019-02-14T22:21:31.159Z,52.40
2019-02-14T22:23:59.271Z,52.40
2019-02-14T22:26:27.111Z,52.40
2019-02-14T22:28:55.039Z,52.70
2019-02-14T22:31:23.024Z,52.50
2019-02-14T22:33:51.043Z,52.30
2019-02-14T22:36:19.003Z,52.30
2019-02-14T22:38:46.904Z,52.10
2019-02-14T22:41:14.840Z,52.50
2019-02-14T22:43:42.802Z,52.40
2019-02-14T22:46:10.781Z,52.50
2019-02-14T22:48:38.742Z,53.00
2019-02-14T22:51:06.764Z,52.90
2019-02-14T22:53:34.746Z,52.90
2019-02-14T22:56:02.734Z,52.60
2019-02-14T22:58:30.778Z,52.60
2019-02-14T23:00:59.843Z,52.70
2019-02-14T23:03:27.777Z,52.70
2019-02-14T23:05:55.834Z,53.00
2019-02-14T23:08:23.852Z,53.30
2019-02-14T23:10:52.054Z,53.50
2019-02-14T23:13:19.979Z,53.60
2019-02-14T23:15:48.114Z,53.90
2019-02-14T23:18:16.219Z,54.00
2019-02-14T23:20:44.357Z,53.90
2019-02-14T23:23:12.323Z,54.40
2019-02-14T23:25:40.746Z,55.20
2019-02-14T23:28:08.713Z,54.20
2019-02-14T23:30:36.590Z,54.50
2019-02-14T23:33:04.545Z,54.40
2019-02-14T23:35:32.457Z,54.50
2019-02-14T23:38:00.354Z,54.90
2019-02-14T23:40:28.266Z,54.70
2019-02-14T23:43:04.124Z,54.30
2019-02-14T23:45:26.374Z,54.70
2019-02-14T23:47:54.364Z,54.50
2019-02-14T23:50:22.473Z,54.40
2019-02-14T23:52:50.391Z,54.50
2019-02-14T23:55:18.412Z,54.70
2019-02-14T23:57:46.496Z,54.60
